Time;durP1;ratioP1;P1;durP2;ratioP2;P2;SDS_P1;SDS_P2;PMS_P1;PMS_P2;Temp;Humidity;BMP_temperature;BMP_pressure;BME280_temperature;BME280_humidity;BME280_pressure;Samples;Min_cycle;Max_cycle;Signal;HPM_P1;HPM_P2
2023/01/07 00:01:49;;;;;;;3.88;2.65;;;8.90;99.90;;;;;;5079293;28;25136;-75
2023/01/07 00:04:16;;;;;;;4.63;2.83;;;8.90;99.90;;;;;;5079247;28;25067;-74
2023/01/07 00:06:46;;;;;;;4.63;3.33;;;9.00;99.90;;;;;;5078825;28;25102;-74
2023/01/07 00:09:18;;;;;;;5.03;2.60;;;9.00;99.90;;;;;;5079266;28;25097;-75
2023/01/07 00:11:46;;;;;;;3.72;2.25;;;9.00;99.90;;;;;;5078796;28;25066;-74
2023/01/07 00:14:14;;;;;;;3.70;2.35;;;9.00;99.90;;;;;;5077726;28;25095;-74
2023/01/07 00:16:42;;;;;;;2.78;1.70;;;9.00;99.90;;;;;;5077623;28;25110;-74
2023/01/07 00:19:13;;;;;;;3.10;1.90;;;9.00;99.90;;;;;;5078846;28;25075;-74
2023/01/07 00:21:41;;;;;;;2.33;1.60;;;9.00;99.90;;;;;;5076838;28;25099;-75
2023/01/07 00:24:10;;;;;;;3.58;1.92;;;9.10;99.90;;;;;;5078619;28;25126;-75
2023/01/07 00:26:38;;;;;;;2.70;1.73;;;9.10;99.90;;;;;;5078774;28;25080;-75
2023/01/07 00:29:07;;;;;;;4.40;1.65;;;9.10;99.90;;;;;;5063002;28;25142;-74
2023/01/07 00:31:36;;;;;;;3.80;2.20;;;9.20;99.90;;;;;;5057625;28;25083;-74
2023/01/07 00:36:42;;;;;;;2.97;1.98;;;9.20;99.90;;;;;;5058564;28;25077;-74
2023/01/07 00:39:18;;;;;;;3.63;2.40;;;9.20;99.90;;;;;;5058248;28;25092;-74
2023/01/07 00:44:32;;;;;;;2.85;1.92;;;9.30;99.90;;;;;;5058530;28;25068;-75
2023/01/07 00:46:59;;;;;;;2.95;2.08;;;9.30;99.90;;;;;;5058452;28;25121;-74
2023/01/07 00:49:27;;;;;;;2.47;1.70;;;9.30;99.90;;;;;;5040673;28;25110;-74
2023/01/07 00:51:57;;;;;;;3.60;2.20;;;9.30;99.90;;;;;;5056636;28;25051;-74
2023/01/07 00:54:24;;;;;;;4.70;1.73;;;9.30;99.90;;;;;;5040336;28;25066;-74
2023/01/07 00:56:52;;;;;;;2.80;1.90;;;9.30;99.90;;;;;;5058225;28;25064;-74
2023/01/07 00:59:19;;;;;;;3.60;2.00;;;9.30;99.90;;;;;;5039607;28;25092;-75
2023/01/07 01:01:46;;;;;;;3.42;1.80;;;9.30;99.90;;;;;;5058132;28;25096;-74
2023/01/07 01:04:14;;;;;;;3.28;2.33;;;9.30;99.90;;;;;;5057979;28;25064;-74
2023/01/07 01:06:41;;;;;;;3.40;2.28;;;9.30;99.90;;;;;;5040184;28;25061;-75
2023/01/07 01:09:08;;;;;;;3.90;2.28;;;9.30;99.90;;;;;;5040078;28;25071;-74
2023/01/07 01:11:35;;;;;;;3.58;2.50;;;9.30;99.90;;;;;;5057647;28;25162;-75
2023/01/07 01:14:02;;;;;;;4.05;2.42;;;9.30;99.90;;;;;;5057863;28;25065;-74
2023/01/07 01:16:30;;;;;;;3.42;2.45;;;9.30;99.90;;;;;;5057564;28;25066;-75
2023/01/07 01:18:57;;;;;;;5.90;2.50;;;9.30;99.90;;;;;;5058418;28;25137;-74
2023/01/07 01:21:24;;;;;;;3.88;2.38;;;9.30;99.90;;;;;;5057697;28;25081;-75
2023/01/07 01:23:52;;;;;;;3.80;2.47;;;9.40;99.90;;;;;;5039733;28;25047;-74
2023/01/07 01:26:19;;;;;;;3.78;2.30;;;9.40;99.90;;;;;;5039643;28;25112;-74
2023/01/07 01:28:47;;;;;;;5.43;2.35;;;9.40;99.90;;;;;;5057119;28;25077;-74
2023/01/07 01:31:14;;;;;;;6.78;2.42;;;9.40;99.90;;;;;;5057236;28;25063;-74
2023/01/07 01:33:41;;;;;;;3.17;2.08;;;9.40;99.90;;;;;;5057809;28;25089;-74
2023/01/07 01:36:11;;;;;;;3.83;2.53;;;9.40;99.90;;;;;;5056506;28;25153;-74
2023/01/07 01:38:39;;;;;;;5.05;2.53;;;9.40;99.90;;;;;;5057287;28;25067;-74
2023/01/07 01:41:06;;;;;;;3.63;2.50;;;9.40;99.90;;;;;;5056509;28;25073;-75
2023/01/07 01:43:37;;;;;;;3.53;2.28;;;9.40;99.90;;;;;;5039391;28;25052;-74
2023/01/07 01:46:28;;;;;;;4.32;2.40;;;9.40;99.90;;;;;;5056981;28;25055;-74
2023/01/07 01:49:00;;;;;;;4.22;2.80;;;9.50;99.90;;;;;;5039115;28;25072;-75
2023/01/07 01:51:33;;;;;;;3.78;2.55;;;9.50;99.90;;;;;;5056521;28;25127;-74
2023/01/07 01:54:10;;;;;;;3.85;2.40;;;9.50;99.90;;;;;;5056813;28;25063;-74
2023/01/07 01:56:42;;;;;;;5.28;2.80;;;9.50;99.90;;;;;;5057072;28;25061;-74
2023/01/07 01:59:17;;;;;;;2.92;2.05;;;9.50;99.90;;;;;;5056336;28;25125;-75
2023/01/07 02:01:46;;;;;;;3.53;2.53;;;9.50;99.90;;;;;;5057989;28;25067;-74
2023/01/07 02:04:20;;;;;;;3.65;2.38;;;9.50;99.90;;;;;;5038997;28;25079;-75
2023/01/07 02:07:04;;;;;;;5.07;2.42;;;9.60;99.90;;;;;;5038766;28;25066;-74
2023/01/07 02:09:31;;;;;;;3.35;2.10;;;9.50;99.90;;;;;;5039035;28;25076;-75
2023/01/07 02:12:20;;;;;;;3.35;2.17;;;9.50;99.90;;;;;;5038870;28;25071;-74
2023/01/07 02:15:25;;;;;;;3.30;2.10;;;9.50;99.90;;;;;;5038599;28;25144;-74
2023/01/07 02:18:23;;;;;;;4.25;2.35;;;9.50;99.90;;;;;;5038985;28;25107;-74
2023/01/07 02:21:04;;;;;;;3.75;2.40;;;9.40;99.90;;;;;;5056698;28;25063;-74
2023/01/07 02:24:07;;;;;;;3.50;2.42;;;9.40;99.90;;;;;;5056978;28;25143;-74
2023/01/07 02:26:47;;;;;;;3.45;2.35;;;9.40;99.90;;;;;;5038678;28;25056;-74
2023/01/07 02:29:39;;;;;;;5.15;2.50;;;9.40;99.90;;;;;;5058469;28;25086;-74
2023/01/07 02:32:38;;;;;;;4.13;2.08;;;9.40;99.90;;;;;;5056526;28;25065;-74
2023/01/07 02:35:24;;;;;;;2.58;1.70;;;9.40;99.90;;;;;;5056572;28;25069;-74
2023/01/07 02:38:28;;;;;;;8.55;3.17;;;9.40;99.90;;;;;;5038918;28;25099;-74
2023/01/07 02:41:23;;;;;;;4.68;2.30;;;9.40;99.90;;;;;;5036875;28;25098;-74
2023/01/07 02:44:07;;;;;;;3.53;2.13;;;9.40;99.90;;;;;;5056514;28;25109;-74
2023/01/07 02:46:47;;;;;;;3.72;2.20;;;9.40;99.90;;;;;;5056314;28;25098;-74
2023/01/07 02:49:16;;;;;;;3.15;2.20;;;9.40;99.90;;;;;;5038594;28;25052;-74
2023/01/07 02:51:45;;;;;;;3.20;1.90;;;9.40;99.90;;;;;;5038369;28;25066;-74
2023/01/07 02:54:19;;;;;;;3.67;2.35;;;9.40;99.90;;;;;;5055672;28;25080;-74
2023/01/07 02:57:32;;;;;;;2.88;2.03;;;9.40;99.90;;;;;;5056628;28;25126;-74
2023/01/07 03:00:22;;;;;;;3.85;2.80;;;9.40;99.90;;;;;;5038491;28;25104;-74
2023/01/07 03:03:17;;;;;;;2.83;1.98;;;9.40;99.90;;;;;;5056299;28;25069;-74
2023/01/07 03:06:17;;;;;;;4.00;1.90;;;9.40;99.90;;;;;;5056243;28;25062;-74
2023/01/07 03:09:12;;;;;;;2.97;1.90;;;9.40;99.90;;;;;;5038189;28;25050;-74
2023/01/07 03:11:49;;;;;;;3.33;1.73;;;9.30;99.90;;;;;;5056222;28;25083;-74
2023/01/07 03:14:24;;;;;;;4.80;1.65;;;9.30;99.90;;;;;;5055849;28;25109;-74
2023/01/07 03:17:05;;;;;;;4.45;2.75;;;9.30;99.90;;;;;;5038443;28;25077;-74
2023/01/07 03:19:38;;;;;;;4.00;2.22;;;9.30;99.90;;;;;;5056129;28;25095;-74
2023/01/07 03:22:08;;;;;;;3.83;2.38;;;9.30;99.90;;;;;;5038377;28;25131;-74
2023/01/07 03:24:38;;;;;;;3.13;1.95;;;9.30;99.90;;;;;;5038309;28;25053;-74
2023/01/07 03:27:08;;;;;;;4.70;2.08;;;9.30;99.90;;;;;;5039802;28;25056;-74
2023/01/07 03:29:35;;;;;;;3.67;2.17;;;9.30;99.90;;;;;;5059609;28;25097;-74
2023/01/07 03:32:23;;;;;;;3.88;2.40;;;9.30;99.90;;;;;;5041854;28;25071;-74
2023/01/07 03:34:51;;;;;;;3.50;2.17;;;9.20;99.90;;;;;;5041919;28;25054;-74
2023/01/07 03:37:22;;;;;;;3.17;2.03;;;9.20;99.90;;;;;;5059351;28;25059;-74
2023/01/07 03:39:50;;;;;;;3.10;1.88;;;9.20;99.90;;;;;;5059047;28;25048;-74
2023/01/07 03:45:24;;;;;;;4.90;1.77;;;9.20;99.90;;;;;;5059527;28;25073;-74
2023/01/07 03:47:53;;;;;;;3.10;1.65;;;9.20;99.90;;;;;;5041618;28;25077;-74
2023/01/07 03:50:21;;;;;;;4.85;2.70;;;9.20;99.90;;;;;;5058750;28;25049;-74
2023/01/07 03:52:49;;;;;;;2.85;1.73;;;9.20;99.90;;;;;;5057806;28;25110;-74
2023/01/07 03:55:17;;;;;;;4.53;3.00;;;9.20;99.90;;;;;;5041355;28;25092;-74
2023/01/07 03:57:44;;;;;;;2.70;1.70;;;9.20;99.90;;;;;;5059515;28;25099;-75
2023/01/07 04:00:13;;;;;;;3.35;1.65;;;9.20;99.90;;;;;;5058992;28;25077;-74
2023/01/07 04:02:42;;;;;;;2.53;1.80;;;9.20;99.90;;;;;;5059291;28;25067;-74
2023/01/07 04:05:10;;;;;;;2.60;1.60;;;9.10;99.90;;;;;;5058404;28;25091;-74
2023/01/07 04:07:37;;;;;;;3.15;2.20;;;9.10;99.90;;;;;;5058478;28;25059;-74
2023/01/07 04:10:06;;;;;;;3.45;2.10;;;9.10;99.90;;;;;;5058809;28;25073;-74
2023/01/07 04:12:33;;;;;;;3.88;1.73;;;9.10;99.90;;;;;;5041099;28;25085;-74
2023/01/07 04:15:00;;;;;;;3.78;1.90;;;9.10;99.90;;;;;;5057890;28;25131;-74
2023/01/07 04:17:27;;;;;;;2.70;1.70;;;9.10;99.90;;;;;;5059411;28;25069;-74
2023/01/07 04:19:55;;;;;;;3.03;1.90;;;9.00;99.90;;;;;;5058102;28;25103;-75
2023/01/07 04:22:22;;;;;;;2.97;1.60;;;9.00;99.90;;;;;;5040837;28;25068;-74
2023/01/07 04:24:49;;;;;;;3.15;1.70;;;9.00;99.90;;;;;;5040849;28;25099;-74
2023/01/07 04:27:17;;;;;;;4.95;1.77;;;9.00;99.90;;;;;;5057160;28;25049;-75
2023/01/07 04:29:44;;;;;;;2.03;1.30;;;9.00;99.90;;;;;;5073028;28;25079;-74
2023/01/07 04:32:12;;;;;;;3.10;2.20;;;8.90;99.90;;;;;;5077323;28;25095;-74
2023/01/07 04:34:39;;;;;;;2.75;1.52;;;8.90;99.90;;;;;;5079046;28;25081;-74
2023/01/07 04:37:06;;;;;;;4.75;1.90;;;8.90;99.90;;;;;;5078083;28;25115;-74
2023/01/07 04:39:33;;;;;;;5.00;2.40;;;8.80;99.90;;;;;;5077397;28;25072;-74
2023/01/07 04:42:01;;;;;;;3.65;1.90;;;8.80;99.90;;;;;;5078860;28;25055;-74
2023/01/07 04:44:28;;;;;;;2.25;1.50;;;8.70;99.90;;;;;;5078560;28;25126;-75
2023/01/07 04:46:55;;;;;;;2.45;1.73;;;8.70;99.90;;;;;;5078494;28;25146;-75
2023/01/07 04:49:23;;;;;;;3.60;1.40;;;8.70;99.90;;;;;;5077655;28;25132;-74
2023/01/07 04:51:50;;;;;;;2.25;1.50;;;8.60;99.90;;;;;;5076273;28;25077;-75
2023/01/07 04:54:17;;;;;;;2.30;1.50;;;8.60;99.90;;;;;;5078080;28;25102;-75
2023/01/07 04:56:45;;;;;;;2.20;1.50;;;8.50;99.90;;;;;;5076927;28;25088;-74
2023/01/07 04:59:12;;;;;;;3.90;1.80;;;8.50;99.90;;;;;;5078141;28;25116;-74
2023/01/07 05:01:39;;;;;;;2.95;1.70;;;8.40;99.90;;;;;;5076780;28;25057;-74
2023/01/07 05:04:06;;;;;;;2.75;1.80;;;8.30;99.90;;;;;;5076047;28;25086;-75
2023/01/07 05:06:34;;;;;;;3.05;2.20;;;8.30;99.90;;;;;;5076585;28;25070;-75
2023/01/07 05:09:01;;;;;;;4.75;1.83;;;8.20;99.90;;;;;;5078151;28;25062;-75
2023/01/07 05:11:28;;;;;;;2.90;1.77;;;8.20;99.90;;;;;;5078223;28;25060;-75
2023/01/07 05:14:00;;;;;;;3.38;2.25;;;8.10;99.90;;;;;;5078239;28;25131;-74
2023/01/07 05:16:27;;;;;;;5.85;2.22;;;8.00;99.90;;;;;;5076484;28;25091;-74
2023/01/07 05:18:54;;;;;;;3.80;2.20;;;7.90;99.90;;;;;;5077748;28;25139;-75
2023/01/07 05:21:21;;;;;;;3.35;2.40;;;7.90;99.90;;;;;;5076314;28;25071;-75
2023/01/07 05:23:49;;;;;;;5.43;3.20;;;7.80;99.90;;;;;;5074645;28;25111;-75
2023/01/07 05:26:16;;;;;;;3.85;2.55;;;7.80;99.90;;;;;;5075507;28;25079;-74
2023/01/07 05:28:43;;;;;;;5.65;2.28;;;7.70;99.90;;;;;;5075924;28;25081;-74
2023/01/07 05:31:10;;;;;;;4.82;2.28;;;7.70;99.90;;;;;;5076407;28;25065;-75
2023/01/07 05:33:38;;;;;;;5.28;2.50;;;7.60;99.90;;;;;;5075400;28;25081;-74
2023/01/07 05:36:05;;;;;;;5.78;2.80;;;7.60;99.90;;;;;;5077416;28;25107;-74
2023/01/07 05:38:32;;;;;;;4.88;2.70;;;7.50;99.90;;;;;;5077123;28;25067;-75
2023/01/07 05:41:00;;;;;;;5.18;3.03;;;7.50;99.90;;;;;;5075434;28;25120;-75
2023/01/07 05:43:27;;;;;;;5.03;3.25;;;7.40;99.90;;;;;;5077472;28;25053;-74
2023/01/07 05:45:56;;;;;;;5.03;3.40;;;7.30;99.90;;;;;;5077332;28;25071;-74
2023/01/07 05:48:23;;;;;;;6.35;3.08;;;7.30;99.90;;;;;;5076930;28;25050;-74
2023/01/07 05:50:51;;;;;;;5.03;2.97;;;7.20;99.90;;;;;;5076508;28;25111;-74
2023/01/07 05:53:18;;;;;;;5.00;3.45;;;7.20;99.90;;;;;;5075906;28;25068;-74
2023/01/07 05:55:45;;;;;;;5.32;3.22;;;7.20;99.90;;;;;;5075726;28;25056;-75
2023/01/07 05:58:13;;;;;;;5.30;3.00;;;7.10;99.90;;;;;;5075748;28;25052;-75
2023/01/07 06:00:40;;;;;;;5.78;3.33;;;7.10;99.90;;;;;;5075682;28;25121;-74
2023/01/07 06:03:07;;;;;;;8.48;4.00;;;7.10;99.90;;;;;;5075831;28;25075;-74
2023/01/07 06:05:34;;;;;;;6.43;3.90;;;7.10;99.90;;;;;;5076707;28;25113;-74
2023/01/07 06:08:02;;;;;;;5.88;3.63;;;7.20;99.90;;;;;;5075484;28;25059;-74
2023/01/07 06:10:29;;;;;;;8.60;3.97;;;7.20;99.90;;;;;;5074758;28;25056;-74
2023/01/07 06:12:56;;;;;;;6.22;3.78;;;7.30;99.90;;;;;;5077037;28;25143;-74
2023/01/07 06:15:23;;;;;;;7.32;4.68;;;7.40;99.90;;;;;;5076812;28;25122;-74
2023/01/07 06:17:51;;;;;;;6.97;4.28;;;7.40;99.90;;;;;;5077120;28;25127;-74
2023/01/07 06:20:18;;;;;;;6.68;4.05;;;7.40;99.90;;;;;;5076499;28;25066;-74
2023/01/07 06:22:46;;;;;;;7.90;4.57;;;7.50;99.90;;;;;;5077155;28;25086;-74
2023/01/07 06:25:13;;;;;;;8.25;5.07;;;7.60;99.90;;;;;;5076471;28;25056;-75
2023/01/07 06:27:41;;;;;;;8.73;4.25;;;7.60;99.90;;;;;;5076188;28;25076;-74
2023/01/07 06:30:10;;;;;;;6.22;4.50;;;7.60;99.90;;;;;;5055886;28;25072;-74
2023/01/07 06:32:42;;;;;;;6.90;4.72;;;7.70;99.90;;;;;;5038733;28;25112;-74
2023/01/07 06:35:10;;;;;;;7.70;4.30;;;7.70;99.90;;;;;;5056529;28;25061;-74
2023/01/07 06:37:38;;;;;;;7.05;4.30;;;7.70;99.90;;;;;;5038531;28;25143;-74
2023/01/07 06:40:06;;;;;;;8.05;4.80;;;7.80;99.90;;;;;;5056181;28;25129;-74
2023/01/07 06:42:33;;;;;;;7.38;4.95;;;7.90;99.90;;;;;;5056605;28;25107;-74
2023/01/07 06:45:01;;;;;;;6.72;4.22;;;7.90;99.90;;;;;;5038277;28;25144;-74
2023/01/07 06:47:28;;;;;;;8.48;4.80;;;7.90;99.90;;;;;;5038498;28;25066;-74
2023/01/07 06:49:55;;;;;;;12.07;4.65;;;7.90;99.90;;;;;;5038323;28;25056;-74
2023/01/07 06:52:22;;;;;;;7.47;4.50;;;8.00;99.90;;;;;;5038525;28;25052;-74
2023/01/07 06:54:50;;;;;;;6.35;4.22;;;8.00;99.90;;;;;;5056044;28;25068;-75
2023/01/07 06:57:17;;;;;;;8.95;4.55;;;8.00;99.90;;;;;;5037731;28;25116;-74
2023/01/07 06:59:44;;;;;;;7.38;4.72;;;8.10;99.90;;;;;;5056577;28;25117;-74
2023/01/07 07:02:24;;;;;;;9.00;5.03;;;8.10;99.90;;;;;;5041650;28;25125;-75
2023/01/07 07:04:52;;;;;;;7.95;4.43;;;8.10;99.90;;;;;;5059288;28;25051;-77
2023/01/07 07:07:20;;;;;;;8.75;4.68;;;8.10;99.90;;;;;;5042245;28;25062;-76
2023/01/07 07:09:49;;;;;;;8.98;5.05;;;8.20;99.90;;;;;;5059843;28;25112;-76
2023/01/07 07:12:18;;;;;;;8.77;5.30;;;8.20;99.90;;;;;;5059873;28;25076;-76
2023/01/07 07:14:45;;;;;;;9.05;5.47;;;8.20;99.90;;;;;;5059942;28;25107;-75
2023/01/07 07:17:12;;;;;;;8.85;5.38;;;8.30;99.90;;;;;;5059805;28;25059;-77
2023/01/07 07:19:39;;;;;;;9.75;4.93;;;8.30;99.90;;;;;;5059791;28;25058;-77
2023/01/07 07:22:12;;;;;;;7.80;4.78;;;8.30;99.90;;;;;;5059882;28;25097;-77
2023/01/07 07:24:39;;;;;;;7.97;5.40;;;8.30;99.90;;;;;;5042036;28;25138;-77
2023/01/07 07:27:06;;;;;;;8.18;5.15;;;8.30;99.90;;;;;;5059870;28;25063;-75
2023/01/07 07:29:33;;;;;;;11.25;5.80;;;8.30;99.90;;;;;;5059566;28;25088;-74
2023/01/07 07:32:01;;;;;;;8.00;4.50;;;8.40;99.90;;;;;;5060137;28;25118;-74
2023/01/07 07:34:28;;;;;;;7.43;4.90;;;8.30;99.90;;;;;;5059663;28;25075;-74
2023/01/07 07:36:55;;;;;;;6.45;4.13;;;8.30;99.90;;;;;;5059680;28;25107;-75
2023/01/07 07:39:22;;;;;;;8.15;5.50;;;8.30;99.90;;;;;;5059448;28;25080;-74
2023/01/07 07:41:49;;;;;;;8.13;4.70;;;8.30;99.90;;;;;;5059393;28;25073;-75
2023/01/07 07:44:16;;;;;;;7.57;4.32;;;8.30;99.90;;;;;;5059760;28;25121;-73
2023/01/07 07:46:43;;;;;;;10.00;5.10;;;8.30;99.90;;;;;;5041599;28;25122;-75
2023/01/07 07:49:11;;;;;;;9.85;5.15;;;8.30;99.90;;;;;;5059153;28;25049;-75
2023/01/07 07:51:39;;;;;;;8.45;5.10;;;8.30;99.90;;;;;;5059437;28;25066;-76
2023/01/07 07:54:06;;;;;;;8.57;5.20;;;8.30;99.90;;;;;;5059295;28;25114;-76
2023/01/07 07:56:33;;;;;;;9.00;5.03;;;8.30;99.90;;;;;;5059379;28;25104;-75
2023/01/07 07:59:00;;;;;;;10.70;5.13;;;8.30;99.90;;;;;;5059343;28;25085;-75
2023/01/07 08:01:27;;;;;;;8.85;4.80;;;8.30;99.90;;;;;;5059253;28;25120;-75
2023/01/07 08:03:55;;;;;;;6.47;4.18;;;8.30;99.90;;;;;;5041389;28;25094;-76
2023/01/07 08:06:22;;;;;;;7.00;3.85;;;8.40;99.90;;;;;;5041071;28;25078;-75
2023/01/07 08:08:49;;;;;;;7.75;4.57;;;8.40;99.90;;;;;;5041130;28;25051;-75
2023/01/07 08:11:17;;;;;;;10.98;5.07;;;8.40;99.90;;;;;;5059093;28;25076;-76
2023/01/07 08:13:44;;;;;;;7.43;4.32;;;8.40;99.90;;;;;;5058271;28;25065;-75
2023/01/07 08:16:12;;;;;;;6.45;4.10;;;8.50;99.90;;;;;;5040927;28;25110;-74
2023/01/07 08:18:40;;;;;;;8.25;4.85;;;8.50;99.90;;;;;;5059021;28;25053;-74
2023/01/07 08:21:08;;;;;;;6.57;3.72;;;8.50;99.90;;;;;;5058868;28;25109;-75
2023/01/07 08:23:36;;;;;;;8.98;4.40;;;8.60;99.90;;;;;;5041128;28;25057;-74
2023/01/07 08:26:03;;;;;;;10.65;4.47;;;8.60;99.90;;;;;;5059121;28;25103;-75
2023/01/07 08:28:31;;;;;;;5.47;3.78;;;8.70;99.90;;;;;;5060380;28;25081;-76
2023/01/07 08:31:03;;;;;;;8.27;5.43;;;8.70;99.90;;;;;;5057761;28;25143;-74
2023/01/07 08:33:36;;;;;;;6.60;3.45;;;8.80;99.90;;;;;;5058034;28;25084;-81
2023/01/07 08:36:08;;;;;;;5.05;3.30;;;8.80;99.90;;;;;;5040613;28;25082;-75
2023/01/07 08:38:36;;;;;;;3.63;2.42;;;8.90;99.90;;;;;;5056999;28;25056;-75
2023/01/07 08:41:03;;;;;;;4.20;2.72;;;9.00;99.90;;;;;;5040571;28;25108;-75
2023/01/07 08:43:32;;;;;;;4.10;2.60;;;9.00;99.90;;;;;;5041541;28;25122;-75
2023/01/07 08:45:59;;;;;;;4.28;2.67;;;9.10;99.90;;;;;;5058194;28;25111;-75
2023/01/07 08:48:27;;;;;;;4.93;3.30;;;9.20;99.90;;;;;;5058071;28;25048;-74
2023/01/07 08:50:55;;;;;;;4.65;3.08;;;9.20;99.90;;;;;;5040432;28;25109;-75
2023/01/07 08:53:22;;;;;;;3.85;2.45;;;9.20;99.90;;;;;;5040450;28;25051;-75
2023/01/07 08:55:50;;;;;;;3.22;2.00;;;9.30;99.90;;;;;;5040313;28;25053;-75
2023/01/07 08:58:17;;;;;;;6.35;2.53;;;9.30;99.90;;;;;;5058025;28;25103;-75
2023/01/07 09:00:44;;;;;;;4.00;2.40;;;9.30;99.90;;;;;;5057899;28;25075;-75
2023/01/07 09:03:12;;;;;;;3.70;2.42;;;9.40;99.90;;;;;;5058158;28;25095;-74
2023/01/07 09:05:39;;;;;;;5.32;1.98;;;9.40;99.90;;;;;;5057808;28;25074;-74
2023/01/07 09:08:06;;;;;;;3.97;2.58;;;9.40;99.90;;;;;;5039934;28;25064;-75
2023/01/07 09:10:33;;;;;;;3.58;2.22;;;9.40;99.90;;;;;;5040009;28;25057;-76
2023/01/07 09:13:01;;;;;;;3.25;2.38;;;9.50;99.90;;;;;;5057902;28;25113;-75
2023/01/07 09:15:28;;;;;;;3.75;1.77;;;9.50;99.90;;;;;;5057792;28;25073;-74
2023/01/07 09:17:56;;;;;;;4.57;2.40;;;9.50;99.90;;;;;;5057751;28;25130;-75
2023/01/07 09:20:23;;;;;;;3.20;2.00;;;9.50;99.90;;;;;;5039869;28;25079;-74
2023/01/07 09:22:50;;;;;;;4.68;2.45;;;9.60;99.90;;;;;;5057513;28;25124;-75
2023/01/07 09:25:18;;;;;;;4.60;2.28;;;9.60;99.90;;;;;;5057731;28;25064;-75
2023/01/07 09:27:45;;;;;;;4.22;2.50;;;9.60;99.90;;;;;;5058070;28;25117;-76
2023/01/07 09:30:12;;;;;;;4.22;2.90;;;9.60;99.90;;;;;;5074346;28;25076;-75
2023/01/07 09:32:41;;;;;;;6.32;2.58;;;9.60;99.90;;;;;;5076178;28;25069;-76
2023/01/07 09:35:08;;;;;;;5.72;2.08;;;9.60;99.90;;;;;;5077516;28;25112;-75
2023/01/07 09:37:36;;;;;;;2.70;1.67;;;9.60;99.90;;;;;;5077133;28;25052;-75
2023/01/07 09:40:05;;;;;;;2.80;1.73;;;9.60;99.90;;;;;;5077466;28;25090;-75
2023/01/07 09:43:10;;;;;;;3.85;1.63;;;9.60;99.90;;;;;;5076152;28;25067;-75
2023/01/07 09:45:56;;;;;;;2.53;1.50;;;9.60;99.90;;;;;;5077286;28;25073;-75
2023/01/07 09:48:32;;;;;;;;;;;9.60;99.90;;;;;;5077452;28;25126;-75
2023/01/07 09:51:09;;;;;;;3.80;1.40;;;9.60;99.90;;;;;;5076904;28;24100;-75
2023/01/07 09:53:50;;;;;;;2.03;1.30;;;9.60;99.90;;;;;;5075962;28;25097;-76
2023/01/07 09:56:29;;;;;;;3.20;1.40;;;9.60;99.90;;;;;;5075789;28;25130;-75
2023/01/07 09:58:58;;;;;;;3.05;1.52;;;9.70;99.90;;;;;;5076863;28;25051;-75
2023/01/07 10:01:35;;;;;;;2.30;1.30;;;9.70;99.90;;;;;;5076998;28;25129;-74
2023/01/07 10:04:31;;;;;;;3.25;1.27;;;9.70;99.90;;;;;;5077317;28;25109;-76
2023/01/07 10:07:26;;;;;;;2.63;1.43;;;9.70;99.90;;;;;;5076890;28;25151;-75
2023/01/07 10:10:21;;;;;;;2.22;1.38;;;9.80;99.90;;;;;;5076559;28;25109;-74
2023/01/07 10:12:57;;;;;;;2.20;1.33;;;9.80;99.90;;;;;;5076817;28;25069;-74
2023/01/07 10:15:56;;;;;;;2.53;1.23;;;9.80;99.90;;;;;;5077195;28;25072;-73
2023/01/07 10:18:50;;;;;;;3.00;1.27;;;9.80;99.90;;;;;;5076558;28;25051;-74
2023/01/07 10:21:39;;;;;;;2.33;1.30;;;9.90;99.90;;;;;;5076437;28;25054;-74
2023/01/07 10:24:27;;;;;;;3.03;1.20;;;9.90;99.90;;;;;;5076752;28;25060;-74
2023/01/07 10:27:17;;;;;;;2.50;1.05;;;9.90;99.90;;;;;;5076726;28;25048;-74
2023/01/07 10:29:52;;;;;;;3.08;1.05;;;10.00;99.90;;;;;;5061014;28;25067;-77
2023/01/07 10:32:24;;;;;;;1.25;0.93;;;9.90;99.90;;;;;;5038907;28;25127;-79
2023/01/07 10:34:56;;;;;;;2.03;0.82;;;10.00;99.90;;;;;;5056772;28;25080;-75
2023/01/07 10:37:30;;;;;;;1.58;1.00;;;10.00;99.90;;;;;;5038808;28;25111;-75
2023/01/07 10:40:29;;;;;;;2.75;1.13;;;10.10;99.90;;;;;;5056504;28;25068;-75
2023/01/07 10:43:16;;;;;;;4.72;1.90;;;10.10;99.90;;;;;;5038531;28;25052;-75
2023/01/07 10:45:53;;;;;;;1.48;0.80;;;10.10;99.90;;;;;;5056742;28;25074;-75
2023/01/07 10:48:43;;;;;;;2.25;1.20;;;10.20;99.90;;;;;;5056755;28;25120;-75
2023/01/07 10:51:38;;;;;;;3.20;1.10;;;10.20;99.90;;;;;;5056017;28;25103;-75
2023/01/07 10:54:31;;;;;;;2.28;1.27;;;10.10;99.90;;;;;;5038991;28;25125;-74
2023/01/07 10:57:20;;;;;;;5.90;2.35;;;10.10;99.90;;;;;;5056341;28;25065;-75
2023/01/07 10:59:56;;;;;;;2.72;1.60;;;10.10;99.90;;;;;;5054888;28;25119;-75
2023/01/07 11:02:26;;;;;;;15.13;6.72;;;10.10;99.90;;;;;;5056068;28;25074;-75
2023/01/07 11:04:54;;;;;;;6.18;2.90;;;10.10;99.90;;;;;;5056182;28;25135;-75
2023/01/07 11:07:42;;;;;;;2.63;1.38;;;10.00;99.90;;;;;;5056229;28;25079;-74
2023/01/07 11:10:19;;;;;;;2.00;1.20;;;10.00;99.90;;;;;;5038070;28;25073;-79
2023/01/07 11:12:48;;;;;;;;;;;10.00;99.90;;;;;;5038705;28;25054;-75
2023/01/07 11:15:40;;;;;;;1.58;1.23;;;10.00;99.90;;;;;;5055899;28;25062;-75
2023/01/07 11:18:24;;;;;;;2.47;1.40;;;10.00;99.90;;;;;;5056292;28;25121;-78
2023/01/07 11:20:56;;;;;;;3.47;1.40;;;10.00;99.90;;;;;;5056057;28;25063;-75
2023/01/07 11:23:34;;;;;;;1.70;0.90;;;10.00;99.90;;;;;;5038203;28;25077;-75
2023/01/07 11:26:24;;;;;;;1.75;0.55;;;10.10;99.90;;;;;;5055837;28;25062;-75
2023/01/07 11:28:59;;;;;;;1.30;0.88;;;10.10;99.90;;;;;;5056037;28;25092;-75
2023/01/07 11:31:49;;;;;;;1.27;0.68;;;10.20;99.90;;;;;;5056030;28;25049;-75
2023/01/07 11:34:39;;;;;;;1.52;0.85;;;10.20;99.90;;;;;;5056290;28;25049;-72
2023/01/07 11:37:11;;;;;;;3.65;0.95;;;10.30;99.90;;;;;;5055633;28;25160;-74
2023/01/07 11:39:39;;;;;;;1.50;0.88;;;10.30;99.90;;;;;;5055670;28;25104;-72
2023/01/07 11:42:38;;;;;;;2.00;0.90;;;10.30;99.90;;;;;;5037916;28;25053;-75
2023/01/07 11:45:15;;;;;;;1.42;0.70;;;10.30;99.90;;;;;;5037855;28;25098;-74
2023/01/07 11:47:59;;;;;;;2.05;0.95;;;10.30;99.90;;;;;;5038971;28;25070;-76
2023/01/07 11:50:35;;;;;;;1.70;0.82;;;10.30;99.90;;;;;;5059537;28;25081;-73
2023/01/07 11:53:24;;;;;;;1.95;0.75;;;10.30;99.90;;;;;;5058679;28;25058;-74
2023/01/07 11:55:56;;;;;;;2.28;0.80;;;10.30;99.90;;;;;;5059192;28;25081;-73
2023/01/07 11:58:25;;;;;;;1.48;0.70;;;10.30;99.90;;;;;;5059452;28;25089;-74
2023/01/07 12:01:07;;;;;;;1.90;0.75;;;10.30;99.90;;;;;;5041511;28;25072;-73
2023/01/07 12:03:36;;;;;;;1.92;0.65;;;10.40;99.90;;;;;;5059462;28;25140;-72
2023/01/07 12:06:11;;;;;;;1.40;0.80;;;10.40;99.90;;;;;;5059165;28;25065;-73
2023/01/07 12:08:51;;;;;;;3.30;1.05;;;10.40;99.90;;;;;;5059668;28;25083;-74
2023/01/07 12:11:20;;;;;;;3.42;2.22;;;10.40;99.90;;;;;;5058822;28;25153;-73
2023/01/07 12:13:54;;;;;;;1.17;0.70;;;10.40;99.90;;;;;;5059004;28;25148;-74
2023/01/07 12:16:32;;;;;;;1.70;0.93;;;10.40;99.90;;;;;;5058730;28;25072;-77
2023/01/07 12:19:13;;;;;;;3.15;1.52;;;10.40;99.90;;;;;;5058729;28;25063;-73
2023/01/07 12:22:05;;;;;;;1.67;1.00;;;10.40;99.90;;;;;;5058847;28;25130;-84
2023/01/07 12:24:50;;;;;;;1.55;0.80;;;10.40;99.90;;;;;;5058942;28;25064;-82
2023/01/07 12:27:44;;;;;;;2.05;1.30;;;10.30;99.90;;;;;;5057307;28;25103;-73
2023/01/07 12:30:23;;;;;;;2.85;1.10;;;10.30;99.90;;;;;;5058412;28;25129;-74
2023/01/07 12:32:57;;;;;;;2.28;1.40;;;10.30;99.90;;;;;;5059152;28;25100;-76
2023/01/07 12:35:32;;;;;;;3.80;2.67;;;10.20;99.90;;;;;;5058638;28;25052;-74
2023/01/07 12:38:20;;;;;;;4.27;1.87;;;10.20;99.90;;;;;;5058382;28;25075;-75
2023/01/07 12:41:26;;;;;;;3.22;1.55;;;10.10;99.90;;;;;;5058330;28;25064;-74
2023/01/07 12:44:04;;;;;;;5.40;1.67;;;10.10;99.90;;;;;;5058125;28;25081;-75
2023/01/07 12:46:59;;;;;;;5.32;2.25;;;10.10;99.90;;;;;;5058180;28;25071;-75
2023/01/07 12:49:34;;;;;;;3.70;2.30;;;10.10;99.90;;;;;;5058044;28;25057;-72
2023/01/07 12:52:19;;;;;;;3.72;1.77;;;10.20;99.90;;;;;;5057994;28;25083;-73
2023/01/07 12:54:58;;;;;;;5.82;2.95;;;10.20;99.90;;;;;;5058598;28;25068;-73
2023/01/07 12:57:34;;;;;;;8.90;4.70;;;10.30;99.90;;;;;;5058317;28;25162;-73
2023/01/07 13:00:07;;;;;;;4.15;2.00;;;10.30;99.90;;;;;;5040631;28;25079;-73
2023/01/07 13:03:09;;;;;;;5.65;2.55;;;10.30;99.90;;;;;;5057991;28;25089;-73
2023/01/07 13:05:53;;;;;;;10.27;4.13;;;10.30;99.90;;;;;;5058143;28;25102;-73
2023/01/07 13:08:47;;;;;;;7.05;3.08;;;10.20;99.90;;;;;;5040383;28;25064;-73
2023/01/07 13:14:43;;;;;;;29.58;11.23;;;10.10;99.90;;;;;;5057751;28;25072;-74
2023/01/07 13:17:25;;;;;;;9.82;4.00;;;10.10;99.90;;;;;;5059155;28;25139;-74
2023/01/07 13:19:53;;;;;;;1.90;1.20;;;10.10;99.90;;;;;;5057610;28;25059;-74
2023/01/07 13:22:30;;;;;;;2.35;1.23;;;10.10;99.90;;;;;;5039847;28;25090;-73
2023/01/07 13:25:26;;;;;;;2.03;1.25;;;10.10;99.90;;;;;;5057779;28;25074;-73
2023/01/07 13:28:28;;;;;;;2.13;1.27;;;10.20;99.90;;;;;;5057905;28;25077;-74
2023/01/07 13:31:22;;;;;;;3.88;1.50;;;10.20;99.90;;;;;;5057668;28;25075;-73
2023/01/07 13:34:36;;;;;;;2.10;1.23;;;10.20;99.90;;;;;;5057371;28;25081;-73
2023/01/07 13:37:10;;;;;;;2.72;2.00;;;10.30;99.90;;;;;;5057364;28;25046;-73
2023/01/07 13:40:12;;;;;;;1.50;0.82;;;10.30;99.90;;;;;;5057785;28;25105;-73
2023/01/07 13:43:09;;;;;;;1.35;0.82;;;10.40;99.90;;;;;;5056180;28;25114;-74